Time;durP1;ratioP1;P1;durP2;ratioP2;P2;SDS_P1;SDS_P2;PMS_P1;PMS_P2;Temp;Humidity;BMP_temperature;BMP_pressure;BME280_temperature;BME280_humidity;BME280_pressure;Samples;Min_cycle;Max_cycle;Signal;HPM_P1;HPM_P2
2022/09/04 00:00:17;;;;;;;8.68;5.30;;;;;;;19.48;82.85;97251.09;5026440;28;20064;-66
2022/09/04 00:03:00;;;;;;;6.43;5.38;;;;;;;19.51;83.13;97248.25;5026100;28;20556;-66
2022/09/04 00:05:36;;;;;;;6.70;5.10;;;;;;;19.62;82.27;97255.75;5026123;28;20058;-66
2022/09/04 00:08:49;;;;;;;15.20;6.38;;;;;;;18.96;82.84;97191.63;5038489;28;20057;-67
2022/09/04 00:11:45;;;;;;;7.90;6.05;;;;;;;18.68;88.73;97258.53;5025765;28;20057;-65
2022/09/04 00:14:21;;;;;;;7.78;5.68;;;;;;;18.84;87.99;97267.97;5045937;28;20095;-67
2022/09/04 00:17:21;;;;;;;9.00;5.53;;;;;;;18.35;91.58;97268.50;5043131;28;20059;-67
2022/09/04 00:19:58;;;;;;;13.45;6.55;;;;;;;17.69;94.51;97230.59;5011573;28;20107;-67
2022/09/04 00:22:40;;;;;;;31.40;9.65;;;;;;;17.91;95.95;97283.28;5045343;28;20141;-67
2022/09/04 00:25:24;;;;;;;8.32;6.03;;;;;;;17.46;95.94;97221.97;5043868;28;20511;-65
2022/09/04 00:28:03;;;;;;;7.53;6.30;;;;;;;17.93;94.38;97238.81;5044234;28;20045;-66
2022/09/04 00:30:32;;;;;;;8.02;5.80;;;;;;;18.42;92.32;97307.69;5045507;28;20255;-66
2022/09/04 00:33:53;;;;;;;10.57;6.55;;;;;;;18.58;91.74;97295.91;5045365;28;20168;-67
2022/09/04 00:36:23;;;;;;;8.65;6.18;;;;;;;18.67;90.70;97285.81;4983543;28;20202;-67
2022/09/04 00:39:12;;;;;;;11.43;6.05;;;;;;;18.95;89.91;97299.50;4983042;28;20608;-66
2022/09/04 00:41:58;;;;;;;7.13;6.35;;;;;;;19.08;88.44;97300.56;5016541;28;20076;-68
2022/09/04 00:44:34;;;;;;;8.77;5.75;;;;;;;19.13;88.43;97302.91;5044718;28;20065;-67
2022/09/04 00:47:39;;;;;;;6.75;5.13;;;;;;;19.09;87.06;97282.53;5045222;28;20068;-67
2022/09/04 00:50:12;;;;;;;6.50;5.18;;;;;;;19.09;85.33;97262.06;5043555;28;20192;-66
2022/09/04 00:52:53;;;;;;;8.65;6.07;;;;;;;19.37;85.04;97315.06;5044906;28;20057;-67
2022/09/04 00:55:44;;;;;;;10.88;6.13;;;;;;;19.42;85.32;97309.81;5043327;28;20171;-67
2022/09/04 00:58:29;;;;;;;8.38;5.72;;;;;;;19.43;86.29;97317.00;5043404;28;20144;-66
2022/09/04 01:00:58;;;;;;;10.65;6.47;;;;;;;18.68;88.74;97253.72;5043532;28;20080;-67
2022/09/04 01:03:58;;;;;;;10.77;6.47;;;;;;;19.03;88.88;97301.03;5043146;28;20060;-68
2022/09/04 01:06:35;;;;;;;16.48;7.13;;;;;;;19.18;89.31;97316.50;5044775;28;20053;-68
2022/09/04 01:09:16;;;;;;;7.38;5.60;;;;;;;19.21;85.82;97298.81;5003904;28;20054;-67
2022/09/04 01:11:55;;;;;;;7.55;5.70;;;;;;;19.36;84.95;97322.69;5003888;28;20064;-66
2022/09/04 01:14:40;;;;;;;7.07;5.20;;;;;;;19.48;84.20;97322.16;5005615;28;20060;-68
2022/09/04 01:17:24;;;;;;;6.45;5.53;;;;;;;19.50;84.37;97321.72;5005446;28;20061;-66
2022/09/04 01:20:12;;;;;;;7.18;5.60;;;;;;;19.53;83.49;97321.69;5005280;28;20058;-69
2022/09/04 01:23:09;;;;;;;9.25;5.55;;;;;;;19.51;83.53;97318.50;5005335;28;20058;-67
2022/09/04 01:25:54;;;;;;;14.05;7.25;;;;;;;19.36;85.71;97328.31;5004892;28;20058;-67
2022/09/04 01:28:33;;;;;;;8.85;6.00;;;;;;;19.42;85.50;97332.28;5003644;28;20058;-66
2022/09/04 01:31:24;;;;;;;8.73;5.65;;;;;;;19.33;85.63;97334.00;5003675;28;20053;-67
2022/09/04 01:34:27;;;;;;;7.38;5.35;;;;;;;19.37;86.25;97341.16;5006915;28;20084;-66
2022/09/04 01:37:09;;;;;;;8.50;4.82;;;;;;;19.32;86.37;97338.81;5011375;28;20077;-68
2022/09/04 01:39:38;;;;;;;6.68;5.10;;;;;;;19.26;86.50;97329.25;5011549;28;20054;-67
2022/09/04 01:42:16;;;;;;;6.20;5.57;;;;;;;19.29;86.82;97328.44;5026194;28;20064;-67
2022/09/04 01:44:43;;;;;;;7.93;6.00;;;;;;;19.05;86.57;97284.56;5011203;28;20065;-68
2022/09/04 01:47:22;;;;;;;7.18;5.40;;;;;;;19.38;86.39;97331.50;5011149;28;20063;-68
2022/09/04 01:50:01;;;;;;;11.40;5.68;;;;;;;19.02;86.24;97251.69;5009989;28;20168;-66
2022/09/04 01:52:46;;;;;;;12.68;8.05;;;;;;;19.43;87.07;97317.00;5010949;28;20463;-68
2022/09/04 01:55:40;;;;;;;14.45;7.97;;;;;;;18.89;88.77;97315.22;5009766;28;20069;-65
2022/09/04 01:58:44;;;;;;;9.13;6.03;;;;;;;18.17;94.54;97332.34;5009593;28;20542;-65
2022/09/04 02:01:14;;;;;;;;;;;;;;;17.71;97.97;97313.06;5011384;28;20069;-67
2022/09/04 02:03:54;;;;;;;15.57;8.43;;;;;;;17.48;100.00;97320.41;5010921;28;19988;-65
2022/09/04 02:06:37;;;;;;;12.65;6.95;;;;;;;17.71;99.05;97317.84;5011439;28;20057;-65
2022/09/04 02:09:24;;;;;;;11.80;7.63;;;;;;;17.48;99.61;97320.41;5009648;28;20062;-65
2022/09/04 02:12:41;;;;;;;14.48;7.78;;;;;;;17.48;98.47;97328.81;5010761;28;20061;-64
2022/09/04 02:15:11;;;;;;;7.78;6.97;;;;;;;17.78;97.94;97317.81;4996713;28;20061;-66
2022/09/04 02:17:56;;;;;;;10.93;6.10;;;;;;;17.93;96.81;97319.31;5009888;28;20484;-65
2022/09/04 02:20:24;;;;;;;8.82;6.50;;;;;;;17.93;96.56;97322.09;5010631;28;20071;-66
2022/09/04 02:23:12;;;;;;;6.50;5.55;;;;;;;17.56;96.45;97254.75;5009693;28;20049;-66
2022/09/04 02:25:52;;;;;;;6.78;5.80;;;;;;;18.13;95.08;97323.16;5010721;28;20057;-66
2022/09/04 02:28:36;;;;;;;9.63;6.10;;;;;;;18.07;95.65;97330.41;5011135;28;20057;-66
2022/09/04 02:31:18;;;;;;;9.82;6.18;;;;;;;18.20;95.79;97320.28;5010864;28;20066;-66
2022/09/04 02:33:57;;;;;;;13.18;7.78;;;;;;;17.65;94.76;97252.25;5010906;28;20053;-65
2022/09/04 02:36:39;;;;;;;9.18;7.53;;;;;;;18.21;95.62;97319.06;5010673;28;20528;-66
2022/09/04 02:39:44;;;;;;;9.05;6.30;;;;;;;18.27;96.58;97323.06;5026368;28;20081;-66
2022/09/04 02:42:21;;;;;;;8.27;5.45;;;;;;;18.44;95.15;97324.94;5010616;28;20437;-67
2022/09/04 02:45:04;;;;;;;8.10;5.75;;;;;;;18.48;95.29;97325.69;5008493;28;20465;-66
2022/09/04 02:47:51;;;;;;;8.35;6.25;;;;;;;18.58;93.20;97316.38;5006394;28;20050;-67
2022/09/04 02:51:02;;;;;;;6.93;5.93;;;;;;;18.62;93.34;97325.53;5007874;28;20054;-66
2022/09/04 02:54:00;;;;;;;9.77;5.82;;;;;;;18.59;92.88;97311.56;5003573;28;20606;-66
2022/09/04 02:56:30;;;;;;;8.10;5.43;;;;;;;18.59;93.92;97305.94;5007569;28;20053;-66
2022/09/04 02:59:06;;;;;;;6.75;5.03;;;;;;;18.15;94.00;97242.22;5006011;28;20049;-67
2022/09/04 03:01:47;;;;;;;10.35;6.03;;;;;;;18.54;94.28;97321.22;5007291;28;20050;-67
2022/09/04 03:04:26;;;;;;;8.65;6.22;;;;;;;18.62;92.99;97317.13;5007417;28;20065;-66
2022/09/04 03:06:53;;;;;;;7.82;5.35;;;;;;;18.60;92.92;97325.19;5010573;28;20088;-66
2022/09/04 03:09:31;;;;;;;6.18;5.32;;;;;;;18.59;92.63;97312.34;5047167;28;20065;-68
2022/09/04 03:12:10;;;;;;;12.35;5.75;;;;;;;18.55;92.96;97322.81;5045648;28;20067;-67
2022/09/04 03:14:45;;;;;;;7.97;5.43;;;;;;;18.31;92.73;97267.72;5047182;28;20492;-66
2022/09/04 03:17:28;;;;;;;7.70;5.05;;;;;;;17.98;92.03;97215.16;5046664;28;20068;-66
2022/09/04 03:20:01;;;;;;;10.02;5.47;;;;;;;17.95;92.88;97236.41;5044986;28;20053;-67
2022/09/04 03:22:35;;;;;;;11.93;5.60;;;;;;;18.46;92.88;97322.50;5046777;28;20064;-66
2022/09/04 03:25:26;;;;;;;9.82;5.57;;;;;;;18.32;93.93;97324.63;5045261;28;20063;-67
2022/09/04 03:27:53;;;;;;;8.80;5.38;;;;;;;18.38;93.55;97323.78;5046581;28;20071;-67
2022/09/04 03:30:20;;;;;;;8.52;5.45;;;;;;;17.85;94.44;97236.47;5045266;28;20064;-67
2022/09/04 03:33:11;;;;;;;7.72;5.55;;;;;;;18.42;95.30;97315.31;5046839;28;20057;-66
2022/09/04 03:35:49;;;;;;;8.15;5.50;;;;;;;18.18;94.78;97291.88;5045556;28;20060;-65
2022/09/04 03:38:52;;;;;;;12.30;5.95;;;;;;;18.35;96.12;97324.59;5045374;28;20095;-67
2022/09/04 03:41:28;;;;;;;9.00;5.65;;;;;;;18.34;96.26;97327.78;5046753;28;20064;-66
2022/09/04 03:44:23;;;;;;;9.75;6.28;;;;;;;18.38;95.20;97329.41;5045014;28;20071;-66
2022/09/04 03:47:02;;;;;;;10.75;5.85;;;;;;;18.30;94.76;97333.44;5046246;28;20060;-67
2022/09/04 03:49:45;;;;;;;8.80;6.05;;;;;;;18.25;95.33;97335.88;5044814;28;20057;-66
2022/09/04 03:52:50;;;;;;;7.57;5.78;;;;;;;18.24;94.59;97329.47;5046005;28;20573;-67
2022/09/04 03:55:25;;;;;;;5.70;4.88;;;;;;;18.33;93.61;97335.41;5046024;28;20053;-66
2022/09/04 03:58:18;;;;;;;6.90;6.10;;;;;;;18.31;94.40;97340.63;5045608;28;20048;-66
2022/09/04 04:00:50;;;;;;;6.97;5.63;;;;;;;18.36;93.68;97343.00;5022777;28;20566;-66
2022/09/04 04:03:33;;;;;;;8.88;5.78;;;;;;;17.97;94.51;97283.66;5044280;28;20060;-68
2022/09/04 04:06:00;;;;;;;9.77;6.28;;;;;;;18.29;95.43;97342.28;5045710;28;20525;-67
2022/09/04 04:08:50;;;;;;;7.18;6.28;;;;;;;18.19;94.73;97321.50;5026589;28;20050;-66
2022/09/04 04:11:41;;;;;;;10.82;6.43;;;;;;;18.27;94.52;97323.06;5004872;28;20076;-67
2022/09/04 04:14:37;;;;;;;10.10;6.07;;;;;;;18.46;93.97;97375.81;5004648;28;20111;-67
2022/09/04 04:17:35;;;;;;;10.55;6.25;;;;;;;18.06;97.96;97365.28;5004651;28;20069;-67
2022/09/04 04:20:09;;;;;;;10.73;6.68;;;;;;;18.08;99.76;97365.66;5006266;28;20061;-66
2022/09/04 04:22:58;;;;;;;12.82;7.55;;;;;;;18.32;99.05;97387.09;5005828;28;20065;-66
2022/09/04 04:25:33;;;;;;;8.82;7.18;;;;;;;18.37;100.00;97383.84;5005789;28;20076;-65
2022/09/04 04:28:18;;;;;;;10.00;7.80;;;;;;;18.44;100.00;97388.66;5005906;28;20517;-67
2022/09/04 04:30:51;;;;;;;10.43;7.38;;;;;;;18.48;100.00;97367.75;5004305;28;20089;-66
2022/09/04 04:33:26;;;;;;;8.33;7.47;;;;;;;18.70;99.69;97386.00;5005277;28;20173;-68
2022/09/04 04:36:16;;;;;;;11.30;6.97;;;;;;;18.93;96.87;97400.22;5004408;28;20049;-66
2022/09/04 04:38:56;;;;;;;14.52;7.38;;;;;;;18.96;97.02;97393.78;5005450;28;20089;-66
2022/09/04 04:48:28;;;;;;;12.05;7.47;;;;;;;19.31;94.23;97396.25;5005275;28;20500;-67
2022/09/04 04:51:21;;;;;;;14.27;9.68;;;;;;;18.87;93.51;97328.91;5005178;28;20069;-67
2022/09/04 04:54:01;;;;;;;14.63;8.45;;;;;;;19.44;93.45;97411.31;5000021;28;20062;-68
2022/09/04 04:56:39;;;;;;;11.32;8.35;;;;;;;19.58;92.92;97418.78;5005389;28;20053;-68
2022/09/04 04:59:19;;;;;;;12.75;8.27;;;;;;;19.31;94.04;97410.28;5004114;28;20054;-67
2022/09/04 05:01:49;;;;;;;10.20;8.50;;;;;;;19.37;93.51;97419.84;5004256;28;20057;-67
2022/09/04 05:04:39;;;;;;;10.55;8.00;;;;;;;19.18;91.44;97383.91;5004044;28;20053;-67
2022/09/04 05:07:16;;;;;;;10.35;7.82;;;;;;;19.58;91.37;97434.84;5010666;28;20083;-67
2022/09/04 05:09:49;;;;;;;10.00;7.32;;;;;;;19.28;91.05;97439.19;5042473;28;20539;-66
2022/09/04 05:12:27;;;;;;;14.83;8.30;;;;;;;19.40;91.40;97441.47;5044630;28;20056;-67
2022/09/04 05:15:05;;;;;;;11.48;8.10;;;;;;;19.44;90.36;97428.16;5044910;28;20070;-68
2022/09/04 05:17:53;;;;;;;8.15;7.35;;;;;;;18.87;93.54;97429.97;5044619;28;20045;-67
2022/09/04 05:20:52;;;;;;;9.93;7.20;;;;;;;18.79;93.97;97422.81;5044726;28;20060;-67
2022/09/04 05:23:21;;;;;;;11.00;8.25;;;;;;;19.07;93.05;97428.16;5043102;28;20060;-67
2022/09/04 05:26:06;;;;;;;9.48;7.10;;;;;;;19.21;92.16;97439.25;5044418;28;20060;-67
2022/09/04 05:28:45;;;;;;;7.55;6.75;;;;;;;19.58;90.09;97446.91;5043035;28;20053;-68
2022/09/04 05:31:27;;;;;;;9.98;7.38;;;;;;;19.39;90.35;97445.47;5042967;28;20060;-68
2022/09/04 05:34:19;;;;;;;9.30;6.55;;;;;;;19.32;89.82;97450.38;5044516;28;20528;-68
2022/09/04 05:37:05;;;;;;;7.47;6.50;;;;;;;18.92;88.68;97319.22;5042894;28;20060;-68
2022/09/04 05:39:42;;;;;;;9.02;7.13;;;;;;;19.34;88.06;97397.41;5042982;28;20511;-67
2022/09/04 05:42:35;;;;;;;6.82;6.13;;;;;;;19.94;86.03;97455.69;5043071;28;20053;-67
2022/09/04 05:45:02;;;;;;;8.45;6.50;;;;;;;20.32;83.89;97460.00;5036303;28;20061;-68
2022/09/04 05:47:44;;;;;;;12.68;6.45;;;;;;;20.14;81.41;97462.28;5044450;28;20142;-66
2022/09/04 05:50:16;;;;;;;8.35;6.40;;;;;;;20.28;81.88;97450.81;5044289;28;20075;-66
2022/09/04 05:53:03;;;;;;;8.43;6.30;;;;;;;20.02;83.60;97465.63;5042582;28;20063;-68
2022/09/04 05:55:33;;;;;;;;;;;;;;;20.60;81.68;97460.38;5044604;28;20049;-69
2022/09/04 05:58:24;;;;;;;7.65;6.68;;;;;;;20.17;80.97;97469.88;5043928;28;19925;-67
2022/09/04 06:00:51;;;;;;;7.45;6.40;;;;;;;19.53;84.20;97472.66;5042886;28;20096;-69
2022/09/04 06:03:26;;;;;;;9.02;5.85;;;;;;;19.65;82.14;97406.66;5044287;28;20068;-69
2022/09/04 06:06:08;;;;;;;6.47;5.85;;;;;;;20.18;80.14;97423.63;5043961;28;20056;-68
2022/09/04 06:08:37;;;;;;;7.40;6.28;;;;;;;20.99;79.13;97485.13;5029616;28;20072;-68
2022/09/04 06:11:31;;;;;;;7.72;5.78;;;;;;;21.43;75.74;97476.28;5022909;28;20072;-66
2022/09/04 06:14:22;;;;;;;6.35;5.72;;;;;;;21.72;74.35;97471.66;5024205;28;20057;-67
2022/09/04 06:17:08;;;;;;;7.38;5.47;;;;;;;22.05;73.53;97456.50;5022724;28;20057;-66
2022/09/04 06:20:28;;;;;;;7.00;5.82;;;;;;;21.89;73.87;97442.31;5023486;28;20050;-66
2022/09/04 06:23:28;;;;;;;7.93;6.20;;;;;;;21.80;74.45;97450.59;4969634;28;20128;-67
2022/09/04 06:26:05;;;;;;;7.68;6.32;;;;;;;21.96;74.17;97452.66;4969449;28;20054;-67
2022/09/04 06:29:07;;;;;;;7.32;6.07;;;;;;;21.78;74.00;97457.91;5022176;28;20054;-66
2022/09/04 06:31:56;;;;;;;9.30;5.97;;;;;;;19.91;76.02;97228.75;4969231;28;20437;-67
2022/09/04 06:34:57;;;;;;;9.15;6.90;;;;;;;21.83;74.80;97461.00;5025773;28;20064;-66
2022/09/04 06:37:37;;;;;;;6.72;5.63;;;;;;;21.77;71.59;97380.94;5027448;28;20060;-67
2022/09/04 06:40:09;;;;;;;6.68;5.97;;;;;;;22.45;70.94;97458.03;5027735;28;20053;-68
2022/09/04 06:42:46;;;;;;;6.75;6.13;;;;;;;22.51;70.37;97454.69;5026426;28;20153;-66
2022/09/04 06:45:32;;;;;;;7.13;5.53;;;;;;;22.96;69.04;97452.78;5025247;28;20072;-67
2022/09/04 06:48:36;;;;;;;7.07;5.68;;;;;;;23.18;67.42;97460.28;5027281;28;20057;-66
2022/09/04 06:51:15;;;;;;;6.93;6.00;;;;;;;22.76;68.57;97466.22;5025861;28;20057;-67
2022/09/04 06:53:51;;;;;;;7.15;6.30;;;;;;;21.56;69.86;97333.41;5026942;28;20058;-67
2022/09/04 06:56:40;;;;;;;9.50;6.68;;;;;;;21.10;75.03;97466.00;5027049;28;20061;-66
2022/09/04 06:59:39;;;;;;;7.50;6.20;;;;;;;21.27;74.60;97433.91;5026713;28;20061;-67
2022/09/04 07:02:25;;;;;;;8.18;6.63;;;;;;;21.87;71.56;97455.28;5025725;28;20065;-67
2022/09/04 07:05:13;;;;;;;8.35;6.50;;;;;;;22.14;71.00;97447.44;5027112;28;20096;-68
2022/09/04 07:07:58;;;;;;;8.30;6.30;;;;;;;20.60;71.08;97215.44;5033194;28;20053;-67
2022/09/04 07:10:41;;;;;;;11.05;8.23;;;;;;;21.73;69.78;97332.25;5046548;28;20068;-67
2022/09/04 07:13:37;;;;;;;10.18;8.43;;;;;;;21.77;72.12;97434.53;5046711;28;20083;-67
2022/09/04 07:16:31;;;;;;;10.98;8.52;;;;;;;21.68;70.33;97344.06;5046387;28;20069;-67
2022/09/04 07:19:40;;;;;;;9.93;8.13;;;;;;;21.83;72.00;97446.88;5046411;28;20523;-67
2022/09/04 07:22:25;;;;;;;13.60;8.85;;;;;;;21.88;72.20;97485.88;5061643;28;20086;-68
2022/09/04 07:25:10;;;;;;;9.68;8.68;;;;;;;22.44;70.31;97450.00;5044987;28;20049;-67
2022/09/04 07:28:22;;;;;;;10.20;8.60;;;;;;;22.68;68.34;97439.38;5045005;28;20053;-67
2022/09/04 07:30:57;;;;;;;10.13;9.05;;;;;;;22.75;68.59;97448.47;5041192;28;20099;-69
2022/09/04 07:34:10;;;;;;;14.43;10.70;;;;;;;22.88;68.02;97428.75;5044891;28;20069;-67
2022/09/04 07:37:04;;;;;;;10.15;9.15;;;;;;;22.80;67.31;97421.69;5043118;28;20103;-68
2022/09/04 07:39:37;;;;;;;9.75;8.75;;;;;;;22.68;68.28;97430.91;5044200;28;20531;-65
2022/09/04 07:42:24;;;;;;;12.88;11.55;;;;;;;22.60;68.42;97440.78;5044435;28;20102;-65
2022/09/04 07:45:05;;;;;;;11.32;9.73;;;;;;;22.36;69.28;97415.50;5044210;28;20053;-65
2022/09/04 07:47:42;;;;;;;9.75;8.23;;;;;;;22.18;69.30;97380.41;5044506;28;20061;-66
2022/09/04 07:50:17;;;;;;;11.68;9.05;;;;;;;22.35;69.61;97430.03;5044197;28;20048;-66
2022/09/04 07:53:13;;;;;;;9.43;8.38;;;;;;;22.42;69.80;97425.03;5045871;28;20099;-65
2022/09/04 07:55:50;;;;;;;10.25;9.25;;;;;;;22.68;69.32;97431.69;5040599;28;20049;-66
2022/09/04 07:58:45;;;;;;;13.07;9.07;;;;;;;23.24;67.31;97485.97;5046160;28;20053;-65
2022/09/04 08:01:39;;;;;;;10.80;8.82;;;;;;;23.53;64.79;97435.94;5045426;28;20542;-66
2022/09/04 08:04:13;;;;;;;10.95;9.13;;;;;;;23.68;64.45;97437.13;5044457;28;20172;-66
2022/09/04 08:06:58;;;;;;;14.43;9.10;;;;;;;23.76;63.60;97438.50;5044403;28;20064;-66
2022/09/04 08:09:42;;;;;;;11.55;9.80;;;;;;;23.22;65.31;97444.00;5006256;28;20060;-66
2022/09/04 08:12:38;;;;;;;10.45;8.57;;;;;;;23.43;64.61;97442.69;5006009;28;20061;-65
2022/09/04 08:15:21;;;;;;;9.45;8.63;;;;;;;22.83;63.99;97353.00;5006036;28;20584;-65
2022/09/04 08:18:00;;;;;;;12.57;9.38;;;;;;;22.95;65.73;97445.56;5006143;28;20064;-67
2022/09/04 08:20:48;;;;;;;11.13;8.93;;;;;;;23.24;65.06;97437.91;5004356;28;20061;-65
2022/09/04 08:23:36;;;;;;;11.98;9.52;;;;;;;23.29;64.93;97438.22;5004276;28;20522;-65
2022/09/04 08:26:35;;;;;;;10.43;8.85;;;;;;;23.13;65.33;97445.88;5005392;28;20057;-66
2022/09/04 08:29:20;;;;;;;10.32;9.32;;;;;;;23.24;64.26;97392.69;5005733;28;20061;-65
2022/09/04 08:32:18;;;;;;;9.82;8.77;;;;;;;23.92;63.09;97427.13;5004523;28;20061;-66
2022/09/04 08:35:01;;;;;;;9.60;8.60;;;;;;;24.42;61.96;97418.72;5006021;28;20058;-66
2022/09/04 08:37:32;;;;;;;10.57;9.57;;;;;;;25.04;59.21;97429.25;5005538;28;20515;-66
2022/09/04 08:40:27;;;;;;;12.95;8.98;;;;;;;25.56;57.22;97422.22;5004131;28;20076;-66
2022/09/04 08:43:09;;;;;;;11.77;8.85;;;;;;;25.95;56.42;97413.88;5003269;28;20489;-66
2022/09/04 08:45:54;;;;;;;11.20;9.75;;;;;;;26.72;53.41;97407.19;5005671;28;20513;-67
2022/09/04 08:48:40;;;;;;;10.15;9.15;;;;;;;26.40;53.08;97408.47;5005034;28;20068;-67
2022/09/04 08:51:55;;;;;;;9.68;8.73;;;;;;;26.07;53.16;97417.88;5004174;28;20057;-66
2022/09/04 08:54:53;;;;;;;10.15;9.23;;;;;;;26.23;54.12;97421.31;4951329;28;20057;-66
2022/09/04 08:57:41;;;;;;;12.88;8.73;;;;;;;26.25;53.18;97429.38;5003926;28;20107;-66
2022/09/04 09:00:15;;;;;;;10.77;9.68;;;;;;;25.70;54.66;97342.25;4991738;28;20479;-66
2022/09/04 09:03:16;;;;;;;11.35;10.15;;;;;;;26.54;54.54;97407.13;5005344;28;20108;-66
2022/09/04 09:05:53;;;;;;;10.93;9.88;;;;;;;26.40;53.44;97407.66;5003707;28;20069;-66
2022/09/04 09:08:38;;;;;;;13.35;10.73;;;;;;;25.97;55.02;97413.41;5026307;28;20056;-67
2022/09/04 09:11:43;;;;;;;11.27;9.60;;;;;;;25.98;54.48;97420.66;5045068;28;20064;-66
2022/09/04 09:14:21;;;;;;;11.23;10.23;;;;;;;25.83;55.20;97419.63;5043240;28;20057;-67
2022/09/04 09:17:19;;;;;;;11.05;9.98;;;;;;;25.91;55.70;97429.44;5044356;28;20056;-66
2022/09/04 09:19:59;;;;;;;11.55;10.35;;;;;;;25.78;55.99;97431.56;5043466;28;20095;-66
2022/09/04 09:23:03;;;;;;;10.57;9.45;;;;;;;25.67;54.99;97440.44;5044470;28;20068;-66
2022/09/04 09:25:50;;;;;;;;;;;;;;;25.68;54.23;97453.41;5043468;28;20079;-65
2022/09/04 09:28:40;;;;;;;11.30;10.13;;;;;;;25.82;54.04;97443.56;5043829;28;19932;-67
2022/09/04 09:31:45;;;;;;;14.02;11.68;;;;;;;25.13;56.88;97437.84;5038689;28;20060;-66
2022/09/04 09:34:17;;;;;;;11.95;10.68;;;;;;;25.55;56.96;97426.31;5001444;28;20181;-68
2022/09/04 09:37:22;;;;;;;10.73;9.63;;;;;;;25.49;56.72;97436.66;5038232;28;20053;-67
2022/09/04 09:40:20;;;;;;;11.50;10.40;;;;;;;25.31;57.42;97423.88;5042757;28;20088;-67
2022/09/04 09:42:55;;;;;;;14.80;11.10;;;;;;;25.89;56.93;97440.47;5044646;28;20139;-68
2022/09/04 09:45:49;;;;;;;11.93;10.63;;;;;;;26.04;55.24;97441.53;5044059;28;20516;-69
2022/09/04 09:48:40;;;;;;;11.13;10.00;;;;;;;25.88;55.54;97478.63;5044181;28;20537;-68
2022/09/04 09:51:13;;;;;;;12.27;10.98;;;;;;;26.06;54.83;97427.69;5044037;28;20439;-67
2022/09/04 09:53:54;;;;;;;11.82;10.63;;;;;;;26.06;54.28;97433.34;5044237;28;20053;-68
2022/09/04 09:56:46;;;;;;;13.13;10.40;;;;;;;25.37;54.57;97400.63;5046772;28;20086;-69
2022/09/04 09:59:50;;;;;;;13.88;11.55;;;;;;;25.71;54.57;97434.63;5048397;28;20061;-68
2022/09/04 10:02:29;;;;;;;16.23;12.43;;;;;;;26.31;53.44;97433.19;5047801;28;20515;-68
2022/09/04 10:05:38;;;;;;;15.52;13.07;;;;;;;26.67;52.09;97411.44;5046973;28;20060;-67
2022/09/04 10:08:27;;;;;;;13.50;12.15;;;;;;;27.33;51.00;97440.44;5027215;28;20092;-69
2022/09/04 10:11:23;;;;;;;14.40;12.05;;;;;;;26.94;51.97;97439.19;5027984;28;20572;-68
2022/09/04 10:14:05;;;;;;;13.35;11.45;;;;;;;27.69;50.20;97429.88;5026384;28;20060;-68
2022/09/04 10:17:05;;;;;;;12.20;11.00;;;;;;;27.54;49.65;97433.78;5027686;28;20146;-67
2022/09/04 10:20:00;;;;;;;10.82;9.55;;;;;;;26.34;50.64;97426.56;5028007;28;20076;-69
2022/09/04 10:22:51;;;;;;;10.75;9.63;;;;;;;25.71;52.83;97406.25;5027462;28;20067;-69
2022/09/04 10:25:27;;;;;;;11.13;10.00;;;;;;;26.35;51.92;97428.19;5025840;28;20045;-70
2022/09/04 10:28:15;;;;;;;12.30;10.98;;;;;;;26.41;51.38;97427.09;5027196;28;20057;-69
2022/09/04 10:31:00;;;;;;;13.32;12.02;;;;;;;26.67;51.55;97424.88;5027503;28;20068;-68
2022/09/04 10:33:58;;;;;;;10.85;9.88;;;;;;;27.09;50.29;97414.59;5027778;28;20119;-71
2022/09/04 10:36:52;;;;;;;19.20;14.73;;;;;;;27.13;50.51;97412.38;5028050;28;20060;-70
2022/09/04 10:42:49;;;;;;;11.82;8.93;;;;;;;26.98;49.88;97402.88;5027384;28;20053;-68
2022/09/04 10:45:25;;;;;;;9.35;8.55;;;;;;;26.85;48.89;97387.97;5018078;28;20072;-68
2022/09/04 10:48:01;;;;;;;10.52;9.43;;;;;;;27.32;48.71;97404.69;5025908;28;20128;-68
2022/09/04 10:50:49;;;;;;;11.88;9.07;;;;;;;27.61;48.30;97396.47;5025837;28;20090;-69
2022/09/04 10:53:42;;;;;;;9.43;8.63;;;;;;;28.26;46.43;97398.78;5025981;28;20076;-69
2022/09/04 10:56:25;;;;;;;9.68;8.77;;;;;;;28.84;45.02;97382.09;5025425;28;20057;-70
2022/09/04 10:59:29;;;;;;;10.70;9.63;;;;;;;28.85;45.39;97347.38;5027265;28;20053;-68
2022/09/04 11:02:15;;;;;;;11.68;9.18;;;;;;;29.24;46.20;97376.81;5025337;28;20056;-69
2022/09/04 11:05:00;;;;;;;9.55;8.65;;;;;;;29.33;45.39;97373.88;5027303;28;20056;-69
2022/09/04 11:08:04;;;;;;;9.02;8.13;;;;;;;29.29;45.02;97376.16;5027927;28;20435;-69
2022/09/04 11:10:53;;;;;;;8.27;7.47;;;;;;;29.08;44.58;97378.03;4968786;28;20094;-69
2022/09/04 11:13:35;;;;;;;8.60;7.80;;;;;;;28.94;45.28;97375.09;5044498;28;20165;-69
2022/09/04 11:16:23;;;;;;;26.67;16.55;;;;;;;27.53;46.03;97107.72;5045239;28;20057;-69
2022/09/04 11:19:27;;;;;;;9.90;8.93;;;;;;;29.09;45.33;97365.34;5045705;28;20048;-69
2022/09/04 11:22:11;;;;;;;;;;;;;;;28.94;45.40;97353.06;5047168;28;20061;-70
2022/09/04 11:24:58;;;;;;;9.27;7.82;;;;;;;28.56;46.06;97377.81;5046869;28;19925;-70
2022/09/04 11:28:02;;;;;;;9.75;8.90;;;;;;;27.82;47.65;97369.91;5045011;28;20522;-69
2022/09/04 11:30:47;;;;;;;9.80;8.80;;;;;;;26.66;50.08;97369.28;5038524;28;20061;-67
2022/09/04 11:33:23;;;;;;;10.18;9.23;;;;;;;26.64;50.63;97366.13;5046462;28;20076;-69
2022/09/04 11:35:59;;;;;;;10.93;9.75;;;;;;;26.76;50.98;97367.25;5046713;28;20079;-69
2022/09/04 11:38:42;;;;;;;10.27;9.18;;;;;;;27.12;50.17;97362.44;5045219;28;20069;-70
2022/09/04 11:41:18;;;;;;;;;;;;;;;26.29;51.48;97356.16;5047414;28;20146;-69
2022/09/04 11:44:09;;;;;;;9.77;8.77;;;;;;;26.10;52.79;97371.53;5044490;28;19932;-68
2022/09/04 11:47:16;;;;;;;10.10;9.15;;;;;;;26.46;50.03;97331.94;5046479;28;20065;-69
2022/09/04 11:49:57;;;;;;;9.13;8.32;;;;;;;26.06;52.18;97365.19;5046530;28;20057;-68
2022/09/04 11:52:58;;;;;;;8.50;7.70;;;;;;;25.37;53.74;97358.84;5044595;28;20057;-69
2022/09/04 11:55:36;;;;;;;7.72;6.97;;;;;;;24.72;55.12;97358.69;5044431;28;20060;-69
2022/09/04 11:58:27;;;;;;;9.35;8.45;;;;;;;24.37;55.85;97364.72;5046363;28;20083;-69
2022/09/04 12:01:25;;;;;;;12.65;9.10;;;;;;;24.95;55.29;97352.63;5045699;28;20064;-69
2022/09/04 12:04:07;;;;;;;8.73;7.93;;;;;;;24.88;54.65;97347.19;5045678;28;20416;-69
2022/09/04 12:07:07;;;;;;;10.05;8.82;;;;;;;24.94;54.71;97342.53;5045677;28;20561;-69
2022/09/04 12:10:16;;;;;;;9.57;8.52;;;;;;;24.95;53.85;97335.63;5006346;28;20061;-68
2022/09/04 12:12:49;;;;;;;11.68;10.20;;;;;;;25.18;54.86;97334.44;5006116;28;20443;-68
2022/09/04 12:15:31;;;;;;;19.27;11.25;;;;;;;25.64;53.65;97339.19;5004455;28;20076;-70
2022/09/04 12:18:22;;;;;;;8.02;7.32;;;;;;;26.52;51.13;97330.06;5005476;28;20054;-70
2022/09/04 12:21:20;;;;;;;9.80;8.57;;;;;;;27.15;48.91;97310.28;5005796;28;20064;-70
2022/09/04 12:24:12;;;;;;;9.15;8.32;;;;;;;27.86;47.28;97331.44;5004487;28;20057;-69
2022/09/04 12:27:15;;;;;;;9.90;9.07;;;;;;;28.43;45.58;97334.44;5004552;28;20058;-69
2022/09/04 12:29:59;;;;;;;8.55;7.85;;;;;;;28.79;44.16;97288.63;5005759;28;20053;-69
2022/09/04 12:32:29;;;;;;;8.27;7.68;;;;;;;29.52;42.71;97329.66;5003761;28;20058;-69
2022/09/04 12:35:44;;;;;;;7.65;7.03;;;;;;;29.67;43.35;97326.84;5005667;28;20243;-70
2022/09/04 12:38:20;;;;;;;9.95;8.48;;;;;;;28.69;44.58;97335.63;5004106;28;20049;-69
2022/09/04 12:40:59;;;;;;;10.45;8.60;;;;;;;27.70;46.83;97322.44;5005169;28;20062;-70
2022/09/04 12:43:44;;;;;;;9.45;8.55;;;;;;;28.68;45.70;97314.84;5005088;28;20058;-68
2022/09/04 12:46:11;;;;;;;8.73;7.93;;;;;;;28.58;44.88;97318.25;5005509;28;20149;-68
2022/09/04 12:49:26;;;;;;;9.25;8.00;;;;;;;27.70;46.41;97254.91;5003521;28;20056;-68
2022/09/04 12:52:17;;;;;;;8.88;8.00;;;;;;;28.81;45.07;97308.91;5001557;28;20524;-70
2022/09/04 12:55:13;;;;;;;8.55;7.18;;;;;;;28.86;43.92;97303.34;5005078;28;20220;-69
2022/09/04 12:58:16;;;;;;;9.55;8.63;;;;;;;28.74;45.12;97315.00;5003819;28;20065;-69
2022/09/04 13:01:30;;;;;;;8.32;7.53;;;;;;;29.13;44.71;97313.81;4963242;28;20047;-70
2022/09/04 13:04:02;;;;;;;;;;;;;;;29.45;44.07;97318.59;5005441;28;20444;-69
2022/09/04 13:06:55;;;;;;;7.63;7.03;;;;;;;28.47;43.76;97210.41;5003579;28;19925;-70